Airfield :
LOGIN :

Register | Disclaimer

   EN    FR    IT 

 










Legend :    VFR   Marginal VFR   IFR   Intensive IFR   Very Intensive IFR
Visi :
Ceiling :
>= 8 km
>= 3000ft
5 to 8 km
1000 to 3000 ft
1500m to 5 km
500 to 1000 ft
800 to 1500m
200 to 500 ft
< 800m
< 200 ft
Symbols :   Thunderstorms  Fog  Heavy snow  Heavy precipitations  Wind > 20 kt
SIGMETs :     Misc.  Thunderstorms  Icing  Turbulence  Mountain Waves  Volcanic Ashes






- Airport Elevation : 1367 ft
- IATA code : FDH


EDNY - Friedrichshafen

CURRENT METAR :
  • 281220Z 23007KT 130V280 9999 FEW056 06/M03 Q1021

EXPIRED METARs :
  • 281150Z 24009KT 220V300 9999 SCT029 06/M03 Q1021
  • 281120Z 25011KT 9999 SCT028 05/M03 Q1022
  • 281050Z 25011KT 220V290 9999 SCT028 05/M03 Q1022
  • 281020Z 26013KT 230V290 9999 FEW016 SCT035 05/M03 Q1022
  • 280950Z 26009KT 220V320 9999 SCT030 04/M03 Q1022

TAF TAF EDNY
Valid from the 28 at 12:00 until the 29 at 12:00 UTC


281100Z 2812/2912 26010KT 9999 SCT040
BECMG 2814/2816 17003KT
BECMG 2910/2912 24008KT



MET'MAP, your aeronautical weather chart ! - Copyright ORBIFLY December 2007 - Disclaimer

ORBIFLY MET'MAP TEAM :

Programming & Development : Alexandra Zaïnal
Concept & original design : Baudouin d'Aumeries
Assistance for programming : Marc-Olivier Méhu
Technical & hardware support : Manuel Goepfert

Contact : metmap@orbifly.com




SOURCES & CREDITS :

   NOAA